Time;durP1;ratioP1;P1;durP2;ratioP2;P2;SDS_P1;SDS_P2;PMS_P1;PMS_P2;Temp;Humidity;BMP_temperature;BMP_pressure;BME280_temperature;BME280_humidity;BME280_pressure;Samples;Min_cycle;Max_cycle;Signal;HPM_P1;HPM_P2
2021/01/02 00:00:59;;;;;;;;;11.00;10.00;;;;;10.63;53.31;98125.91;6029955;22;102858;-82
2021/01/02 00:03:46;;;;;;;;;11.25;10.25;;;;;10.65;53.12;98118.44;6026732;22;104135;-83
2021/01/02 00:06:20;;;;;;;;;11.00;10.50;;;;;10.61;53.21;98119.91;5910947;22;102609;-83
2021/01/02 00:08:49;;;;;;;;;13.50;11.50;;;;;10.63;53.37;98125.91;5965598;22;102939;-83
2021/01/02 00:11:43;;;;;;;;;17.50;13.50;;;;;10.62;53.10;98123.44;5994114;22;102636;-83
2021/01/02 00:14:30;;;;;;;;;11.25;10.75;;;;;10.62;52.93;98131.56;5928180;22;109370;-84
2021/01/02 00:17:15;;;;;;;;;11.75;9.75;;;;;10.61;53.37;98128.00;6006564;22;102645;-84
2021/01/02 00:19:53;;;;;;;;;11.50;9.25;;;;;10.61;53.37;98135.28;5950583;22;102822;-83
2021/01/02 00:22:48;;;;;;;;;11.25;9.00;;;;;10.61;53.22;98138.81;6026034;22;102910;-83
2021/01/02 00:25:15;;;;;;;;;12.50;11.00;;;;;10.61;53.13;98129.88;5929680;22;108656;-83
2021/01/02 00:28:03;;;;;;;;;6.00;5.00;;;;;10.61;53.26;98124.47;5995887;22;102839;-83
2021/01/02 00:30:59;;;;;;;;;7.75;7.00;;;;;10.61;52.90;98133.41;5977668;22;102671;-83
2021/01/02 00:34:04;;;;;;;;;9.75;8.25;;;;;10.60;53.42;98126.34;5979455;22;102965;-84
2021/01/02 00:36:49;;;;;;;;;15.75;12.25;;;;;10.88;53.88;98122.50;5928385;22;109431;-83
2021/01/02 00:39:32;;;;;;;;;13.50;12.00;;;;;11.09;56.78;98127.59;6023251;22;102583;-83
2021/01/02 00:42:01;;;;;;;;;11.00;11.00;;;;;11.30;58.35;98127.25;5995740;22;102743;-83
2021/01/02 00:44:30;;;;;;;;;13.00;8.50;;;;;11.46;59.18;98121.34;5975973;22;102901;-83
2021/01/02 00:46:58;;;;;;;;;11.00;9.00;;;;;11.63;59.60;98133.31;6026449;22;110053;-84
2021/01/02 00:49:28;;;;;;;;;7.50;7.50;;;;;11.79;58.84;98131.16;6022904;22;102799;-84
2021/01/02 00:52:16;;;;;;;;;10.00;8.50;;;;;11.94;59.12;98134.34;5973174;22;102779;-83
2021/01/02 00:55:06;;;;;;;;;11.50;9.75;;;;;12.10;58.96;98138.41;5955012;22;102831;-84
2021/01/02 00:57:42;;;;;;;;;11.00;11.00;;;;;12.22;59.52;98125.75;5917684;22;107943;-84
2021/01/02 01:00:09;;;;;;;;;9.00;7.00;;;;;12.36;59.53;98138.97;5993270;22;102867;-84
2021/01/02 01:02:53;;;;;;;;;11.00;9.50;;;;;12.49;59.83;98128.00;6019622;22;102758;-84
2021/01/02 01:05:21;;;;;;;;;9.50;8.00;;;;;12.62;59.50;98128.91;5991876;22;102999;-84
2021/01/02 01:07:54;;;;;;;;;11.50;8.50;;;;;12.74;59.17;98136.06;6024842;22;104000;-84
2021/01/02 01:10:22;;;;;;;;;12.75;10.00;;;;;12.86;58.71;98128.00;6017192;22;102676;-84
2021/01/02 01:13:03;;;;;;;;;10.00;9.75;;;;;12.97;59.04;98130.78;6023089;22;102482;-84
2021/01/02 01:15:30;;;;;;;;;9.25;8.00;;;;;13.09;59.14;98128.13;6017291;22;107292;-84
2021/01/02 01:18:16;;;;;;;;;14.75;12.00;;;;;13.22;59.39;98127.16;5997906;22;103188;-84
2021/01/02 01:20:57;;;;;;;;;12.75;9.75;;;;;13.32;59.28;98130.16;5951510;22;102951;-85
2021/01/02 01:23:27;;;;;;;;;10.25;8.00;;;;;13.42;58.46;98144.00;5996416;22;102789;-84
2021/01/02 01:26:19;;;;;;;;;12.00;9.25;;;;;13.53;58.96;98137.78;6028645;22;102791;-84
2021/01/02 01:28:47;;;;;;;;;11.75;10.75;;;;;13.63;58.29;98139.94;5879094;22;108528;-84
2021/01/02 01:31:18;;;;;;;;;14.00;13.25;;;;;13.73;58.65;98138.31;5973472;22;103075;-84
2021/01/02 01:33:48;;;;;;;;;11.25;9.25;;;;;13.80;58.66;98136.34;6019266;22;104452;-84
2021/01/02 01:36:20;;;;;;;;;7.25;6.75;;;;;13.92;57.88;98144.50;6031328;22;102901;-84
2021/01/02 01:38:48;;;;;;;;;10.75;9.75;;;;;14.00;58.20;98144.19;6027528;22;104047;-84
2021/01/02 01:41:15;;;;;;;;;12.75;11.25;;;;;14.08;58.12;98137.56;6024997;22;102959;-84
2021/01/02 01:44:10;;;;;;;;;12.00;10.75;;;;;14.18;57.38;98146.78;6005363;22;102711;-84
2021/01/02 01:46:48;;;;;;;;;13.50;10.50;;;;;14.26;57.57;98143.72;5954286;22;102872;-84
2021/01/02 01:49:35;;;;;;;;;12.50;9.00;;;;;14.35;57.42;98137.94;6026980;22;104160;-84
2021/01/02 01:52:12;;;;;;;;;11.00;9.50;;;;;14.41;57.44;98129.66;5994886;22;102849;-84
2021/01/02 01:55:04;;;;;;;;;10.50;9.50;;;;;14.49;57.24;98129.34;5988209;22;102871;-84
2021/01/02 01:57:34;;;;;;;;;10.50;10.00;;;;;14.56;56.81;98135.47;6017475;22;103939;-84
2021/01/02 02:00:17;;;;;;;;;12.00;12.00;;;;;14.63;57.04;98138.88;6022627;22;108754;-84
2021/01/02 02:02:47;;;;;;;;;12.75;11.50;;;;;14.70;56.64;98142.31;6015873;22;102850;-85
2021/01/02 02:05:17;;;;;;;;;11.00;9.50;;;;;14.76;56.42;98137.00;6011430;22;102698;-85
2021/01/02 02:08:08;;;;;;;;;12.00;11.25;;;;;14.84;56.84;98137.44;5993642;22;102753;-85
2021/01/02 02:10:46;;;;;;;;;13.00;10.25;;;;;14.90;56.09;98136.50;5984248;22;109157;-85
2021/01/02 02:13:21;;;;;;;;;14.00;11.75;;;;;14.95;56.09;98133.84;6011429;22;102799;-85
2021/01/02 02:15:52;;;;;;;;;13.00;11.25;;;;;15.04;56.26;98142.50;6022659;22;102806;-85
2021/01/02 02:18:27;;;;;;;;;13.25;11.00;;;;;15.08;55.79;98136.31;6022744;22;102837;-85
2021/01/02 02:20:57;;;;;;;;;12.25;11.50;;;;;15.13;56.03;98139.13;5994410;22;102940;-85
2021/01/02 02:23:44;;;;;;;;;12.00;11.00;;;;;15.19;55.68;98142.81;6014888;22;102797;-85
2021/01/02 02:26:30;;;;;;;;;11.00;9.50;;;;;15.26;55.38;98140.78;5918352;22;102858;-85
2021/01/02 02:29:08;;;;;;;;;11.00;10.75;;;;;15.30;55.54;98141.94;6028038;22;102843;-85
2021/01/02 02:31:40;;;;;;;;;12.75;10.75;;;;;15.37;55.46;98139.06;5987978;22;108377;-85
2021/01/02 02:34:08;;;;;;;;;14.25;12.00;;;;;15.40;55.66;98146.78;6024022;22;102502;-84
2021/01/02 02:36:36;;;;;;;;;12.50;11.00;;;;;15.46;55.02;98143.88;5995811;22;102473;-85
2021/01/02 02:39:09;;;;;;;;;12.25;11.00;;;;;15.51;54.87;98137.75;5987164;22;102912;-84
2021/01/02 02:41:45;;;;;;;;;13.25;12.25;;;;;15.55;54.84;98142.47;5993474;22;107201;-84
2021/01/02 02:44:12;;;;;;;;;11.00;10.00;;;;;15.59;54.80;98129.16;5997920;22;102940;-85
2021/01/02 02:46:48;;;;;;;;;11.00;10.50;;;;;15.63;54.84;98133.88;5992379;22;102761;-85
2021/01/02 02:49:16;;;;;;;;;12.75;10.00;;;;;15.68;54.37;98143.22;5969792;22;102825;-85
2021/01/02 02:52:06;;;;;;;;;14.25;12.50;;;;;15.72;54.16;98128.84;5988192;22;104549;-85
2021/01/02 02:54:33;;;;;;;;;12.00;11.50;;;;;15.75;54.29;98128.38;6002013;22;102707;-84
2021/01/02 02:57:01;;;;;;;;;14.50;12.00;;;;;15.80;54.55;98123.03;5992522;22;102768;-84
2021/01/02 02:59:27;;;;;;;;;12.00;11.25;;;;;15.84;54.23;98129.63;5995279;22;102728;-85
2021/01/02 03:01:54;;;;;;;;;12.50;11.50;;;;;15.87;54.18;98131.84;5993751;22;104145;-85
2021/01/02 03:04:21;;;;;;;;;15.00;13.00;;;;;15.92;54.08;98133.84;5991861;22;106298;-85
2021/01/02 03:06:47;;;;;;;;;11.00;10.75;;;;;15.94;53.65;98123.53;6024532;22;102913;-85
2021/01/02 03:09:14;;;;;;;;;7.00;7.00;;;;;15.97;53.90;98126.59;6020667;22;102828;-85
2021/01/02 03:11:41;;;;;;;;;13.00;11.75;;;;;16.01;53.59;98126.91;5994290;22;103820;-85
2021/01/02 03:14:08;;;;;;;;;15.00;12.00;;;;;16.04;53.77;98121.78;6024058;22;102575;-85
2021/01/02 03:16:37;;;;;;;;;16.00;12.50;;;;;16.07;53.45;98124.00;6019812;22;102725;-84
2021/01/02 03:19:05;;;;;;;;;13.25;12.00;;;;;16.10;53.51;98128.16;6021581;22;102845;-84
2021/01/02 03:21:32;;;;;;;;;15.50;11.75;;;;;16.13;53.28;98124.09;6022208;22;103952;-85
2021/01/02 03:24:00;;;;;;;;;12.75;12.00;;;;;16.16;53.23;98123.63;6024851;22;102828;-85
2021/01/02 03:26:27;;;;;;;;;15.75;13.25;;;;;16.17;53.75;98122.53;5986272;22;102855;-85
2021/01/02 03:28:54;;;;;;;;;14.75;12.75;;;;;16.21;53.08;98132.69;6013851;22;102820;-85
2021/01/02 03:31:20;;;;;;;;;13.00;11.75;;;;;16.22;53.02;98134.34;6003817;22;103907;-85
2021/01/02 03:33:47;;;;;;;;;15.25;13.25;;;;;16.25;53.30;98125.69;6011722;22;102758;-85
2021/01/02 03:36:14;;;;;;;;;12.00;12.00;;;;;16.27;53.09;98126.25;6011471;22;102739;-85
2021/01/02 03:38:41;;;;;;;;;12.00;11.75;;;;;16.28;53.30;98130.63;6086011;22;102830;-85
2021/01/02 03:41:08;;;;;;;;;14.00;12.00;;;;;16.28;52.79;98127.06;5985697;22;104237;-85
2021/01/02 03:43:35;;;;;;;;;12.50;10.25;;;;;16.31;52.80;98137.47;5988134;22;102806;-85
2021/01/02 03:46:02;;;;;;;;;12.25;11.00;;;;;16.35;53.08;98127.72;6001765;22;102854;-85
2021/01/02 03:48:29;;;;;;;;;15.00;13.25;;;;;16.34;52.72;98126.91;6019106;22;102699;-85
2021/01/02 03:50:56;;;;;;;;;15.50;13.75;;;;;16.35;53.16;98131.28;6022063;22;104272;-85
2021/01/02 03:53:22;;;;;;;;;14.00;12.75;;;;;16.37;52.65;98136.50;5986713;22;107768;-85
2021/01/02 03:55:49;;;;;;;;;15.50;14.00;;;;;16.39;52.48;98131.63;6020505;22;102791;-85
2021/01/02 03:58:15;;;;;;;;;14.75;13.00;;;;;16.40;52.52;98135.97;6021495;22;102970;-85
2021/01/02 04:00:42;;;;;;;;;15.00;13.00;;;;;16.41;52.18;98137.66;5991396;22;104479;-85
2021/01/02 04:03:09;;;;;;;;;15.75;13.25;;;;;16.40;51.99;98136.81;5986402;22;102561;-85
2021/01/02 04:05:36;;;;;;;;;17.25;13.50;;;;;16.42;52.44;98145.59;6016015;22;103045;-84
2021/01/02 04:08:03;;;;;;;;;15.50;14.25;;;;;16.43;52.05;98144.53;6004067;22;104516;-84
2021/01/02 04:10:30;;;;;;;;;16.00;14.50;;;;;16.44;52.77;98139.88;5993378;22;109360;-85
2021/01/02 04:12:56;;;;;;;;;16.75;15.00;;;;;16.44;51.78;98143.41;6001426;22;102796;-85
2021/01/02 04:15:25;;;;;;;;;14.25;13.25;;;;;16.45;52.12;98144.25;6011821;22;102699;-85
2021/01/02 04:17:51;;;;;;;;;15.00;12.00;;;;;16.45;52.40;98146.97;5994836;22;102801;-85
2021/01/02 04:20:18;;;;;;;;;15.00;14.00;;;;;16.48;51.87;98149.19;5980276;22;104393;-84
2021/01/02 04:22:45;;;;;;;;;15.25;13.50;;;;;16.46;51.99;98137.72;6012627;22;102920;-84
2021/01/02 04:25:12;;;;;;;;;14.50;14.25;;;;;16.48;52.51;98141.00;5997460;22;102832;-84
2021/01/02 04:27:38;;;;;;;;;15.00;14.25;;;;;16.48;52.22;98141.84;6029227;22;102933;-84
2021/01/02 04:30:06;;;;;;;;;16.50;15.00;;;;;16.48;52.18;98135.56;6019040;22;104021;-84
2021/01/02 04:32:32;;;;;;;;;15.00;13.25;;;;;16.50;52.15;98147.06;5999242;22;102817;-84
2021/01/02 04:34:59;;;;;;;;;16.50;15.50;;;;;16.49;51.93;98143.50;6026985;22;102875;-84
2021/01/02 04:37:29;;;;;;;;;13.75;13.25;;;;;16.49;51.77;98150.88;6022600;22;102883;-84
2021/01/02 04:39:56;;;;;;;;;15.25;14.50;;;;;16.45;51.29;98128.72;6025742;22;103789;-85
2021/01/02 04:42:23;;;;;;;;;14.75;14.25;;;;;16.49;51.55;98137.22;6024655;22;102790;-84
2021/01/02 04:44:51;;;;;;;;;15.50;12.00;;;;;16.49;51.76;98151.69;6015369;22;103011;-84
2021/01/02 04:47:20;;;;;;;;;20.00;16.50;;;;;16.49;51.44;98145.41;6023200;22;102795;-84
2021/01/02 04:49:47;;;;;;;;;15.50;13.50;;;;;16.49;51.45;98153.59;5979622;22;104321;-84
2021/01/02 04:52:17;;;;;;;;;17.25;15.00;;;;;16.48;51.59;98146.47;6023673;22;102897;-84
2021/01/02 04:54:48;;;;;;;;;18.50;15.50;;;;;16.49;51.90;98153.59;5997740;22;102642;-84
2021/01/02 04:57:19;;;;;;;;;16.75;15.75;;;;;16.49;51.41;98150.88;6024200;22;102768;-85
2021/01/02 04:59:49;;;;;;;;;18.50;12.50;;;;;16.48;51.45;98168.31;5992952;22;104247;-85
2021/01/02 05:02:19;;;;;;;;;14.50;13.50;;;;;16.47;51.19;98161.22;6024311;22;102809;-85
2021/01/02 05:04:47;;;;;;;;;17.00;15.00;;;;;16.47;51.16;98170.25;6017895;22;102462;-85
2021/01/02 05:07:28;;;;;;;;;17.50;16.00;;;;;16.46;51.51;98167.75;5996310;22;102972;-84
2021/01/02 05:09:55;;;;;;;;;17.25;16.50;;;;;16.44;50.90;98154.34;6019492;22;105248;-85
2021/01/02 05:12:25;;;;;;;;;19.00;17.00;;;;;16.45;50.94;98166.09;6020526;22;102474;-84
2021/01/02 05:15:09;;;;;;;;;18.25;15.00;;;;;16.45;51.53;98172.38;6025382;22;102819;-84
2021/01/02 05:17:37;;;;;;;;;17.50;14.25;;;;;16.44;51.53;98175.34;6021031;22;102755;-84
2021/01/02 05:20:21;;;;;;;;;17.00;14.00;;;;;16.43;51.51;98169.09;6012847;22;104163;-83
2021/01/02 05:22:48;;;;;;;;;18.25;16.50;;;;;16.43;51.39;98168.25;5859874;22;102780;-84
2021/01/02 05:25:16;;;;;;;;;22.00;18.00;;;;;16.43;51.26;98184.63;5976739;22;102591;-85
2021/01/02 05:27:45;;;;;;;;;17.25;14.00;;;;;16.43;50.85;98179.16;5987929;22;102898;-84
2021/01/02 05:30:15;;;;;;;;;20.25;16.75;;;;;16.42;51.62;98181.06;6014798;22;103901;-85
2021/01/02 05:33:07;;;;;;;;;17.00;15.25;;;;;16.39;51.30;98173.34;6015955;22;102580;-85
2021/01/02 05:35:36;;;;;;;;;17.75;16.00;;;;;16.39;50.71;98170.63;6015983;22;102619;-84
2021/01/02 05:38:16;;;;;;;;;21.25;15.75;;;;;16.39;51.01;98173.34;6028631;22;102835;-85
2021/01/02 05:40:50;;;;;;;;;16.75;15.50;;;;;16.40;50.79;98174.19;5952990;22;108546;-85
2021/01/02 05:43:18;;;;;;;;;14.50;12.75;;;;;16.38;50.30;98170.91;5996626;22;102799;-85
2021/01/02 05:45:45;;;;;;;;;17.00;15.50;;;;;16.37;50.90;98166.50;6014589;22;102963;-84
2021/01/02 05:48:14;;;;;;;;;15.25;14.00;;;;;16.37;50.66;98178.25;6021006;22;102828;-84
2021/01/02 05:50:44;;;;;;;;;20.75;17.25;;;;;16.37;51.14;98183.72;6025664;22;103947;-85
2021/01/02 05:53:25;;;;;;;;;17.00;15.75;;;;;16.36;50.52;98184.78;6019564;22;102449;-85
2021/01/02 05:56:01;;;;;;;;;17.00;15.75;;;;;16.36;51.00;98173.03;6017865;22;102876;-84
2021/01/02 05:58:29;;;;;;;;;17.50;16.50;;;;;16.36;51.11;98175.75;6010607;22;102799;-85
2021/01/02 06:01:07;;;;;;;;;16.50;15.75;;;;;16.34;51.07;98175.19;6022599;22;104322;-84
2021/01/02 06:03:35;;;;;;;;;18.25;16.25;;;;;16.34;51.40;98169.75;6016976;22;102572;-84
2021/01/02 06:06:11;;;;;;;;;21.00;14.50;;;;;16.32;51.05;98185.53;5981847;22;102822;-84
2021/01/02 06:08:51;;;;;;;;;21.00;18.00;;;;;16.31;51.11;98187.41;6002223;22;102869;-84
2021/01/02 06:11:19;;;;;;;;;20.50;17.00;;;;;16.31;50.91;98181.97;6002999;22;103899;-84
2021/01/02 06:13:47;;;;;;;;;21.50;15.25;;;;;16.31;50.90;98181.13;6002029;22;104234;-84
2021/01/02 06:16:13;;;;;;;;;15.75;15.00;;;;;16.30;50.95;98179.50;6017456;22;102788;-84
2021/01/02 06:18:42;;;;;;;;;19.25;16.00;;;;;16.29;50.73;98188.75;6013752;22;102821;-84
2021/01/02 06:21:10;;;;;;;;;17.75;15.75;;;;;16.28;50.93;98187.94;5998829;22;104438;-84
2021/01/02 06:23:38;;;;;;;;;20.25;16.00;;;;;16.27;51.15;98191.72;5989376;22;103057;-83
2021/01/02 06:26:05;;;;;;;;;15.00;12.00;;;;;16.27;50.47;98191.72;6021156;22;102838;-85
2021/01/02 06:28:33;;;;;;;;;15.25;15.25;;;;;16.27;50.39;98201.81;6017994;22;102797;-85
2021/01/02 06:31:05;;;;;;;;;18.75;17.50;;;;;16.24;50.60;98194.13;6014482;22;103961;-84
2021/01/02 06:33:32;;;;;;;;;17.00;15.50;;;;;16.25;50.23;98187.59;6011289;22;102703;-84
2021/01/02 06:35:58;;;;;;;;;18.00;16.00;;;;;16.24;50.37;98200.41;6007865;22;102475;-85
2021/01/02 06:38:25;;;;;;;;;16.50;16.00;;;;;16.24;50.30;98202.31;5993248;22;102528;-84
2021/01/02 06:40:54;;;;;;;;;14.75;14.50;;;;;16.24;50.52;98202.31;6021872;22;103911;-84
2021/01/02 06:43:25;;;;;;;;;19.25;17.50;;;;;16.24;50.18;98202.31;6006286;22;102973;-84
2021/01/02 06:45:56;;;;;;;;;21.00;17.00;;;;;16.22;50.46;98199.81;6014022;22;104131;-84
2021/01/02 06:48:28;;;;;;;;;21.50;17.50;;;;;16.22;50.69;98209.91;5974910;22;102913;-84
2021/01/02 06:50:59;;;;;;;;;19.50;18.25;;;;;16.21;50.10;98197.34;6024676;22;103587;-84
2021/01/02 06:53:35;;;;;;;;;17.25;16.50;;;;;16.21;50.04;98202.81;6016761;22;104162;-85
2021/01/02 06:56:09;;;;;;;;;20.50;17.00;;;;;16.19;50.34;98203.06;6017479;22;102700;-84
2021/01/02 06:58:47;;;;;;;;;20.25;14.75;;;;;16.19;50.52;98210.41;6014219;22;104570;-83
2021/01/02 07:01:16;;;;;;;;;24.00;19.00;;;;;16.18;50.49;98217.75;6006413;22;109510;-84
2021/01/02 07:03:46;;;;;;;;;17.75;16.75;;;;;16.17;50.38;98220.72;6026195;22;102827;-84
2021/01/02 07:06:18;;;;;;;;;17.75;16.00;;;;;16.17;50.33;98213.38;6021778;22;102741;-85
2021/01/02 07:08:49;;;;;;;;;21.25;18.00;;;;;16.16;49.85;98210.91;6024250;22;102816;-84
2021/01/02 07:11:33;;;;;;;;;17.00;15.75;;;;;16.15;50.43;98220.16;6023510;22;103836;-85
2021/01/02 07:14:07;;;;;;;;;18.75;15.25;;;;;16.14;50.38;98218.50;6023926;22;102695;-84
2021/01/02 07:16:37;;;;;;;;;18.00;16.75;;;;;16.14;50.11;98223.94;6022492;22;102751;-85
2021/01/02 07:19:04;;;;;;;;;22.50;19.00;;;;;16.13;49.86;98220.38;5996077;22;102879;-85
2021/01/02 07:21:37;;;;;;;;;22.50;16.75;;;;;16.13;49.92;98225.00;6026586;22;106538;-85
2021/01/02 07:24:29;;;;;;;;;20.75;20.00;;;;;16.11;49.64;98221.72;6014774;22;102548;-84
2021/01/02 07:27:09;;;;;;;;;20.50;18.50;;;;;16.11;49.94;98224.44;6009191;22;102769;-85
2021/01/02 07:29:43;;;;;;;;;21.25;17.50;;;;;16.11;50.03;98217.09;6023816;22;102659;-85
2021/01/02 07:32:13;;;;;;;;;18.50;17.25;;;;;16.10;50.03;98222.78;6026174;22;109342;-85
2021/01/02 07:34:41;;;;;;;;;21.00;19.00;;;;;16.07;49.74;98227.66;5996698;22;102990;-85
2021/01/02 07:37:10;;;;;;;;;24.75;20.00;;;;;16.06;49.77;98227.91;5999443;22;102514;-84
2021/01/02 07:39:37;;;;;;;;;21.75;18.25;;;;;16.06;49.57;98230.66;6004099;22;102915;-83
2021/01/02 07:42:10;;;;;;;;;17.75;17.00;;;;;16.06;49.63;98239.66;6033544;22;104131;-85
2021/01/02 07:44:39;;;;;;;;;23.00;19.75;;;;;16.06;50.18;98234.19;6025640;22;102700;-84
2021/01/02 07:47:07;;;;;;;;;22.25;19.25;;;;;16.05;49.65;98235.25;6028198;22;102742;-84
2021/01/02 07:49:33;;;;;;;;;20.75;18.50;;;;;16.04;50.26;98236.34;6029358;22;102805;-85
2021/01/02 07:52:01;;;;;;;;;16.00;12.50;;;;;16.04;50.13;98247.25;6028971;22;109421;-85
2021/01/02 07:54:32;;;;;;;;;27.50;23.25;;;;;16.05;49.48;98253.53;6025091;22;102734;-81
2021/01/02 07:56:58;;;;;;;;;27.00;23.50;;;;;16.03;50.02;98251.03;6028804;22;102450;-81
2021/01/02 07:59:32;;;;;;;;;21.75;18.25;;;;;16.04;49.64;98246.41;6027279;22;102880;-81
2021/01/02 08:02:00;;;;;;;;;18.25;16.75;;;;;16.02;49.68;98243.13;5998878;22;104540;-83
2021/01/02 08:04:28;;;;;;;;;20.25;18.00;;;;;16.02;49.81;98249.41;5998062;22;102828;-82
2021/01/02 08:06:57;;;;;;;;;20.25;19.75;;;;;16.02;49.55;98238.50;6027360;22;102849;-85
2021/01/02 08:09:25;;;;;;;;;23.75;19.50;;;;;16.01;49.75;98252.38;6024490;22;102788;-82
2021/01/02 08:12:04;;;;;;;;;26.50;20.75;;;;;16.01;49.92;98253.19;6000295;22;103987;-82
2021/01/02 08:14:32;;;;;;;;;26.25;22.75;;;;;15.98;49.29;98264.59;6025065;22;102783;-79
2021/01/02 08:17:02;;;;;;;;;23.50;21.25;;;;;15.97;49.17;98262.94;6026061;22;102540;-78
2021/01/02 08:19:30;;;;;;;;;19.50;17.50;;;;;15.95;49.43;98254.16;6029456;22;102787;-79
2021/01/02 08:21:58;;;;;;;;;29.25;25.75;;;;;15.93;49.49;98259.03;5998716;22;104349;-79
2021/01/02 08:24:25;;;;;;;;;28.25;23.50;;;;;15.93;49.33;98258.22;5997942;22;102423;-78
2021/01/02 08:26:51;;;;;;;;;25.00;22.75;;;;;15.93;49.55;98260.94;6027024;22;104573;-78
2021/01/02 08:29:18;;;;;;;;;27.25;22.25;;;;;15.92;49.36;98260.09;6001362;22;102874;-78
2021/01/02 08:31:51;;;;;;;;;23.25;21.25;;;;;15.91;49.29;98263.91;6025535;22;103780;-78
2021/01/02 08:34:27;;;;;;;;;27.75;23.75;;;;;15.90;49.75;98264.13;6028257;22;103073;-78
2021/01/02 08:37:17;;;;;;;;;32.00;24.00;;;;;15.89;50.30;98266.06;6004644;22;102631;-78
2021/01/02 08:39:44;;;;;;;;;24.25;20.25;;;;;15.88;50.21;98271.75;5870743;22;102481;-77
2021/01/02 08:42:11;;;;;;;;;24.50;21.75;;;;;15.87;49.88;98268.19;6021774;22;104212;-77
2021/01/02 08:44:43;;;;;;;;;26.25;24.00;;;;;15.87;50.36;98264.63;5994888;22;102842;-80
2021/01/02 08:47:10;;;;;;;;;28.75;18.75;;;;;15.83;50.46;98269.75;5993969;22;102519;-80
2021/01/02 08:49:41;;;;;;;;;28.00;25.75;;;;;15.84;50.24;98278.75;6024325;22;104721;-80
2021/01/02 08:52:17;;;;;;;;;28.75;24.25;;;;;15.85;50.70;98283.16;6000395;22;103973;-79
2021/01/02 08:54:43;;;;;;;;;27.50;24.00;;;;;15.85;51.50;98277.69;6028146;22;102465;-80
2021/01/02 08:57:29;;;;;;;;;26.25;22.75;;;;;15.85;51.22;98278.50;6024741;22;102489;-80
2021/01/02 09:00:12;;;;;;;;;33.50;26.50;;;;;15.84;50.91;98278.75;6021454;22;102817;-82
2021/01/02 09:02:40;;;;;;;;;29.75;26.00;;;;;15.79;50.96;98284.94;6022038;22;109408;-82
2021/01/02 09:05:18;;;;;;;;;30.25;27.50;;;;;15.77;51.01;98289.78;5998585;22;102814;-81
2021/01/02 09:07:57;;;;;;;;;32.75;28.50;;;;;15.75;50.86;98286.50;6001023;22;102883;-82
2021/01/02 09:10:26;;;;;;;;;37.25;30.75;;;;;15.73;50.77;98283.16;6001225;22;102674;-82
2021/01/02 09:13:03;;;;;;;;;30.50;26.75;;;;;15.69;50.76;98292.91;6025828;22;104168;-81
2021/01/02 09:15:54;;;;;;;;;35.25;29.50;;;;;15.67;50.93;98283.31;5993566;22;102770;-81
2021/01/02 09:18:30;;;;;;;;;37.75;31.50;;;;;15.66;50.97;98287.94;5953050;22;102763;-81
2021/01/02 09:21:06;;;;;;;;;42.00;32.75;;;;;15.63;50.63;98282.94;6030857;22;104344;-81
2021/01/02 09:23:36;;;;;;;;;32.50;29.50;;;;;15.63;50.72;98293.84;5998495;22;108294;-81
2021/01/02 09:26:04;;;;;;;;;38.75;32.50;;;;;15.60;50.46;98283.44;6028922;22;102644;-81
2021/01/02 09:28:43;;;;;;;;;38.50;33.00;;;;;15.61;50.79;98298.72;5998151;22;102685;-81
2021/01/02 09:31:10;;;;;;;;;43.50;33.50;;;;;15.57;50.63;98295.66;5999071;22;102860;-81
2021/01/02 09:33:36;;;;;;;;;34.75;29.50;;;;;15.57;50.52;98289.38;6024979;22;103589;-82
2021/01/02 09:36:03;;;;;;;;;32.75;29.50;;;;;15.54;50.55;98290.69;6021381;22;102603;-82
2021/01/02 09:38:30;;;;;;;;;38.75;31.50;;;;;15.53;50.38;98283.59;6028131;22;102467;-82
2021/01/02 09:40:57;;;;;;;;;31.50;29.25;;;;;15.53;50.47;98293.66;6025595;22;104508;-82
2021/01/02 09:43:24;;;;;;;;;42.00;33.25;;;;;15.49;50.82;98287.00;6023068;22;103705;-82
2021/01/02 09:45:51;;;;;;;;;44.75;35.25;;;;;15.45;50.96;98283.91;6027609;22;102789;-81
2021/01/02 09:48:17;;;;;;;;;43.00;35.00;;;;;15.44;50.59;98295.06;6025596;22;102451;-82
2021/01/02 09:50:45;;;;;;;;;36.50;30.00;;;;;15.41;50.68;98279.19;6027121;22;102827;-81
2021/01/02 09:53:13;;;;;;;;;41.00;32.25;;;;;15.39;50.84;98287.63;6023820;22;104028;-82
2021/01/02 09:55:39;;;;;;;;;34.75;32.75;;;;;15.38;51.10;98285.94;6026151;22;102725;-81
2021/01/02 09:58:06;;;;;;;;;40.50;33.25;;;;;15.37;50.80;98287.00;6030818;22;102776;-81
2021/01/02 10:00:33;;;;;;;;;38.25;33.00;;;;;15.34;50.93;98282.06;6003217;22;102818;-81
2021/01/02 10:03:00;;;;;;;;;37.75;31.25;;;;;15.33;50.93;98287.72;6025989;22;103807;-82
2021/01/02 10:05:41;;;;;;;;;45.00;36.00;;;;;15.30;51.07;98299.94;5968681;22;102624;-81
2021/01/02 10:08:07;;;;;;;;;33.50;29.00;;;;;15.26;51.40;98293.31;6027078;22;102394;-81
2021/01/02 10:10:34;;;;;;;;;36.25;28.50;;;;;15.22;51.51;98291.31;6029708;22;102785;-82
2021/01/02 10:13:02;;;;;;;;;41.25;32.50;;;;;15.15;51.71;98286.81;6026019;22;103930;-82
2021/01/02 10:15:29;;;;;;;;;42.25;32.50;;;;;15.15;51.22;98291.41;6025656;22;102757;-82
2021/01/02 10:17:57;;;;;;;;;36.25;31.25;;;;;15.11;51.42;98282.91;6025966;22;102887;-82
2021/01/02 10:20:24;;;;;;;;;35.75;30.75;;;;;15.08;51.74;98279.84;6002800;22;102746;-83
2021/01/02 10:22:51;;;;;;;;;37.75;32.75;;;;;15.08;51.60;98285.28;6026093;22;103835;-82
2021/01/02 10:25:18;;;;;;;;;41.00;31.00;;;;;15.05;51.75;98274.84;6029441;22;103156;-82
2021/01/02 10:27:45;;;;;;;;;36.25;29.50;;;;;15.02;51.55;98276.16;6025084;22;102784;-80
2021/01/02 10:30:13;;;;;;;;;35.25;31.00;;;;;14.99;51.77;98271.19;6025012;22;102794;-80
2021/01/02 10:32:39;;;;;;;;;34.50;29.25;;;;;14.97;51.51;98273.31;6001571;22;104122;-80
2021/01/02 10:35:07;;;;;;;;;36.50;30.25;;;;;14.92;51.89;98265.03;6028637;22;102551;-81
2021/01/02 10:37:34;;;;;;;;;31.25;27.75;;;;;14.91;51.87;98255.19;6027082;22;102802;-81
2021/01/02 10:40:01;;;;;;;;;39.50;32.75;;;;;14.89;51.57;98254.63;5997679;22;102848;-81
2021/01/02 10:42:29;;;;;;;;;42.75;31.75;;;;;14.86;51.75;98249.63;6022637;22;104325;-79
2021/01/02 10:44:56;;;;;;;;;31.75;26.25;;;;;14.91;51.85;98247.03;5996374;22;102660;-79
2021/01/02 10:48:01;;;;;;;;;34.50;30.50;;;;;14.95;51.67;98253.66;6023783;22;102813;-79
2021/01/02 10:50:27;;;;;;;;;30.00;27.00;;;;;15.06;53.18;98249.28;5948644;22;104415;-80
2021/01/02 10:52:54;;;;;;;;;33.25;29.00;;;;;15.16;52.63;98257.69;6027055;22;104009;-79
2021/01/02 10:55:21;;;;;;;;;25.50;19.00;;;;;15.21;53.51;98255.06;6000927;22;102856;-79
2021/01/02 10:57:48;;;;;;;;;31.50;26.50;;;;;15.27;53.35;98255.97;6024610;22;102707;-79
2021/01/02 11:00:15;;;;;;;;;31.00;27.50;;;;;15.32;53.38;98258.81;6024993;22;102839;-79
2021/01/02 11:02:41;;;;;;;;;33.00;29.25;;;;;15.35;53.18;98248.28;6020884;22;103969;-79
2021/01/02 11:05:09;;;;;;;;;31.25;29.25;;;;;15.40;53.28;98247.56;6023526;22;108050;-78
2021/01/02 11:07:36;;;;;;;;;32.25;29.25;;;;;15.44;53.42;98243.31;6002701;22;102852;-79
2021/01/02 11:10:03;;;;;;;;;33.00;30.25;;;;;15.46;52.97;98241.97;6033521;22;102836;-80
2021/01/02 11:12:29;;;;;;;;;34.75;31.00;;;;;15.49;53.01;98240.69;6029601;22;104243;-80
2021/01/02 11:14:58;;;;;;;;;35.00;33.00;;;;;15.54;53.10;98229.91;6002925;22;102496;-81
2021/01/02 11:17:24;;;;;;;;;40.75;31.75;;;;;15.56;52.67;98228.59;6030503;22;102806;-82
2021/01/02 11:19:51;;;;;;;;;36.25;31.00;;;;;15.60;52.84;98223.47;6027569;22;102758;-82
2021/01/02 11:22:18;;;;;;;;;32.25;29.00;;;;;15.63;52.50;98223.00;6000733;22;104253;-82
2021/01/02 11:24:45;;;;;;;;;28.50;26.50;;;;;15.66;52.81;98218.97;6027123;22;102445;-82
2021/01/02 11:27:12;;;;;;;;;37.75;32.75;;;;;15.72;52.79;98216.09;6002127;22;102831;-81
2021/01/02 11:29:39;;;;;;;;;34.50;31.75;;;;;15.85;52.45;98215.78;6031170;22;102739;-79